createdAt,value
2022-12-01T00:01:16.406Z,7.08
2022-12-01T00:03:43.072Z,7.05
2022-12-01T00:06:17.963Z,7.00
2022-12-01T00:09:05.053Z,7.03
2022-12-01T00:11:33.073Z,6.99
2022-12-01T00:13:59.674Z,6.93
2022-12-01T00:16:26.328Z,6.93
2022-12-01T00:18:53.256Z,6.91
2022-12-01T00:21:23.005Z,6.93
2022-12-01T00:23:55.182Z,6.92
2022-12-01T00:26:22.738Z,6.89
2022-12-01T00:28:51.214Z,6.93
2022-12-01T00:31:18.080Z,6.94
2022-12-01T00:33:44.742Z,6.94
2022-12-01T00:36:11.485Z,6.93
2022-12-01T00:38:38.873Z,6.92
2022-12-01T00:41:05.639Z,6.86
2022-12-01T00:43:32.580Z,6.80
2022-12-01T00:45:59.456Z,6.82
2022-12-01T00:48:26.071Z,6.77
2022-12-01T00:50:53.571Z,6.77
2022-12-01T00:53:20.878Z,6.77
2022-12-01T00:55:47.467Z,6.79
2022-12-01T00:58:14.030Z,6.82
2022-12-01T01:00:40.634Z,6.86
2022-12-01T01:03:07.712Z,6.85
2022-12-01T01:05:42.024Z,6.87
2022-12-01T01:08:13.438Z,6.88
2022-12-01T01:10:41.283Z,6.90
2022-12-01T01:13:07.846Z,6.89
2022-12-01T01:15:34.513Z,6.82
2022-12-01T01:18:01.622Z,6.81
2022-12-01T01:20:28.863Z,6.83
2022-12-01T01:22:55.420Z,6.82
2022-12-01T01:25:22.835Z,6.77
2022-12-01T01:27:49.783Z,6.75
2022-12-01T01:30:16.897Z,6.72
2022-12-01T01:32:43.480Z,6.72
2022-12-01T01:35:10.097Z,6.67
2022-12-01T01:37:36.622Z,6.70
2022-12-01T01:40:03.442Z,6.69
2022-12-01T01:42:30.024Z,6.70
2022-12-01T01:44:58.789Z,6.73
2022-12-01T01:47:32.918Z,6.76
2022-12-01T01:50:06.246Z,6.78
2022-12-01T01:52:35.943Z,6.79
2022-12-01T01:55:02.930Z,6.80
2022-12-01T01:57:33.298Z,6.81
2022-12-01T02:00:08.012Z,6.82
2022-12-01T02:02:40.798Z,6.83
2022-12-01T02:05:11.152Z,6.85
2022-12-01T02:07:39.868Z,6.86
2022-12-01T02:10:09.177Z,6.86
2022-12-01T02:12:54.472Z,6.88
2022-12-01T02:15:39.627Z,6.87
2022-12-01T02:18:43.180Z,6.90
2022-12-01T02:21:44.266Z,6.92
2022-12-01T02:24:25.967Z,6.91
2022-12-01T02:26:58.627Z,6.91
2022-12-01T02:29:56.145Z,6.90
2022-12-01T02:33:04.909Z,6.90
2022-12-01T02:35:40.378Z,6.88
2022-12-01T02:38:16.208Z,6.82
2022-12-01T02:40:48.474Z,6.85
2022-12-01T02:43:49.361Z,6.84
2022-12-01T02:46:25.364Z,6.83
2022-12-01T02:48:55.400Z,6.82
2022-12-01T02:51:29.014Z,6.78
2022-12-01T02:53:58.700Z,6.77
2022-12-01T02:56:25.604Z,6.78
2022-12-01T02:58:52.302Z,6.81
2022-12-01T03:01:33.869Z,6.81
2022-12-01T03:04:31.146Z,6.83
2022-12-01T03:07:00.315Z,6.79
2022-12-01T03:09:38.913Z,6.80
2022-12-01T03:12:41.618Z,6.79
2022-12-01T03:15:29.764Z,6.78
2022-12-01T03:18:28.470Z,6.73
2022-12-01T03:21:26.715Z,6.75
2022-12-01T03:24:01.761Z,6.77
2022-12-01T03:26:32.656Z,6.78
2022-12-01T03:29:05.655Z,6.77
2022-12-01T03:31:37.782Z,6.75
2022-12-01T03:34:12.483Z,6.76
2022-12-01T03:36:50.141Z,6.77
2022-12-01T03:39:23.986Z,6.77
2022-12-01T03:42:06.870Z,6.72
2022-12-01T03:44:42.278Z,6.70
2022-12-01T03:47:17.072Z,6.69
2022-12-01T03:49:45.227Z,6.67
2022-12-01T03:52:49.491Z,6.65
2022-12-01T03:55:29.413Z,6.64
2022-12-01T03:58:11.389Z,6.62
2022-12-01T04:00:39.073Z,6.64
2022-12-01T04:03:06.487Z,6.64
2022-12-01T04:05:34.846Z,6.63
2022-12-01T04:08:02.007Z,6.65
2022-12-01T04:10:28.833Z,6.59
2022-12-01T04:12:59.385Z,6.59
2022-12-01T04:15:27.273Z,6.55
2022-12-01T04:17:54.135Z,6.55
2022-12-01T04:20:21.302Z,6.56
2022-12-01T04:22:48.260Z,6.60
2022-12-01T04:25:14.972Z,6.64
2022-12-01T04:27:41.542Z,6.64
2022-12-01T04:30:09.021Z,6.64
2022-12-01T04:32:42.324Z,6.63
2022-12-01T04:35:11.911Z,6.61
2022-12-01T04:37:39.532Z,6.60
2022-12-01T04:40:07.127Z,6.62
2022-12-01T04:42:33.723Z,6.57
2022-12-01T04:45:00.320Z,6.61
2022-12-01T04:47:26.922Z,6.60
2022-12-01T04:49:54.437Z,6.63
2022-12-01T04:52:20.991Z,6.69
2022-12-01T04:54:47.540Z,6.70
2022-12-01T04:57:14.128Z,6.69
2022-12-01T04:59:40.707Z,6.64
2022-12-01T05:02:07.673Z,6.65
2022-12-01T05:04:38.445Z,6.64
2022-12-01T05:07:05.232Z,6.68
2022-12-01T05:09:31.884Z,6.68
2022-12-01T05:11:58.462Z,6.70
2022-12-01T05:14:25.055Z,6.72
2022-12-01T05:16:51.657Z,6.71
2022-12-01T05:19:36.972Z,6.68
2022-12-01T05:22:03.516Z,6.66
2022-12-01T05:24:30.078Z,6.69
2022-12-01T05:26:56.722Z,6.65
2022-12-01T05:29:23.318Z,6.67
2022-12-01T05:31:49.921Z,6.69
2022-12-01T05:34:16.615Z,6.71
2022-12-01T05:36:43.224Z,6.74
2022-12-01T05:39:09.868Z,6.75
2022-12-01T05:41:36.775Z,6.72
2022-12-01T05:44:03.380Z,6.74
2022-12-01T05:46:29.960Z,6.74
2022-12-01T05:48:56.500Z,6.77
2022-12-01T05:51:23.067Z,6.81
2022-12-01T05:53:50.011Z,6.80
2022-12-01T05:56:16.633Z,6.82
2022-12-01T05:58:43.216Z,6.82
2022-12-01T06:01:09.897Z,6.78
2022-12-01T06:03:36.480Z,6.81
2022-12-01T06:06:03.061Z,6.78
2022-12-01T06:08:29.822Z,6.83
2022-12-01T06:10:56.381Z,6.81
2022-12-01T06:13:23.106Z,6.84
2022-12-01T06:16:01.244Z,6.82
2022-12-01T06:18:30.037Z,6.84
2022-12-01T06:20:56.648Z,6.85
2022-12-01T06:23:27.598Z,6.86
2022-12-01T06:25:56.663Z,6.85
2022-12-01T06:28:23.254Z,6.84
2022-12-01T06:30:49.854Z,6.77
2022-12-01T06:33:16.457Z,6.81
2022-12-01T06:35:43.075Z,6.83
2022-12-01T06:38:09.660Z,6.87
2022-12-01T06:40:36.492Z,6.91
2022-12-01T06:43:03.056Z,6.95
2022-12-01T06:45:30.353Z,6.95
2022-12-01T06:47:57.680Z,6.99
2022-12-01T06:50:25.277Z,6.99
2022-12-01T06:52:52.879Z,7.01
2022-12-01T06:55:19.591Z,7.03
2022-12-01T06:57:46.642Z,7.06
2022-12-01T07:00:14.557Z,7.02
2022-12-01T07:02:41.565Z,7.06
2022-12-01T07:05:08.514Z,7.08
2022-12-01T07:07:41.053Z,7.11
2022-12-01T07:10:09.843Z,7.13
2022-12-01T07:12:36.748Z,7.15
2022-12-01T07:15:04.499Z,7.17
2022-12-01T07:17:31.046Z,7.14
2022-12-01T07:19:58.103Z,7.25
2022-12-01T07:22:29.539Z,7.32
2022-12-01T07:24:58.904Z,7.39
2022-12-01T07:27:25.516Z,7.49
2022-12-01T07:29:52.109Z,7.59
2022-12-01T07:32:18.754Z,7.67
2022-12-01T07:34:45.315Z,7.81
2022-12-01T07:37:11.850Z,7.93
2022-12-01T07:41:32.246Z,8.10
2022-12-01T07:43:58.886Z,8.18
2022-12-01T07:46:27.244Z,8.19
2022-12-01T07:48:54.988Z,8.26
2022-12-01T07:51:23.124Z,8.32
2022-12-01T07:53:50.958Z,8.34
2022-12-01T07:56:18.963Z,8.43
2022-12-01T07:58:45.692Z,8.52
2022-12-01T08:01:24.824Z,8.61
2022-12-01T08:03:53.866Z,8.70
2022-12-01T08:06:21.190Z,8.82
2022-12-01T08:08:47.923Z,8.94
2022-12-01T08:11:17.619Z,8.99
2022-12-01T08:13:44.980Z,9.10
2022-12-01T08:16:14.689Z,9.22
2022-12-01T08:18:42.735Z,9.38
2022-12-01T08:21:11.890Z,9.57
2022-12-01T08:23:38.694Z,9.98
2022-12-01T08:26:08.233Z,10.69
2022-12-01T08:28:38.952Z,11.77
2022-12-01T08:31:12.359Z,12.24
2022-12-01T08:33:39.218Z,12.52
2022-12-01T08:36:06.843Z,13.47
2022-12-01T08:38:33.674Z,13.79
2022-12-01T08:41:05.539Z,14.34
2022-12-01T08:43:56.579Z,14.81
2022-12-01T08:46:18.872Z,15.73
2022-12-01T08:48:45.658Z,15.82
2022-12-01T08:51:18.365Z,16.86
2022-12-01T08:53:47.744Z,17.90
2022-12-01T08:56:21.243Z,18.15
2022-12-01T08:58:48.279Z,17.96
2022-12-01T09:01:16.572Z,18.34
2022-12-01T09:03:44.245Z,18.25
2022-12-01T09:06:16.083Z,17.86
2022-12-01T09:08:43.347Z,18.38
2022-12-01T09:11:16.014Z,18.78
2022-12-01T09:13:43.550Z,18.30
2022-12-01T09:16:17.288Z,17.86
2022-12-01T09:18:45.504Z,17.29
2022-12-01T09:21:21.166Z,17.39
2022-12-01T09:23:48.700Z,17.01
2022-12-01T09:26:18.672Z,16.98
2022-12-01T09:28:46.566Z,16.87
2022-12-01T09:31:15.138Z,17.18
2022-12-01T09:33:41.621Z,17.31
2022-12-01T09:36:09.026Z,16.91
2022-12-01T09:38:37.101Z,17.15
2022-12-01T09:41:18.245Z,17.71
2022-12-01T09:43:54.054Z,18.24
2022-12-01T09:46:26.585Z,18.48
2022-12-01T09:48:57.248Z,18.67
2022-12-01T09:51:26.301Z,18.38
2022-12-01T09:53:59.739Z,18.65
2022-12-01T09:56:27.632Z,18.85
2022-12-01T09:58:57.401Z,18.75
2022-12-01T10:01:44.803Z,18.80
2022-12-01T10:04:46.510Z,18.56
2022-12-01T10:07:21.272Z,18.63
2022-12-01T10:09:52.274Z,18.14
2022-12-01T10:12:22.595Z,18.16
2022-12-01T10:14:49.153Z,18.01
2022-12-01T10:17:15.637Z,17.72
2022-12-01T10:20:02.774Z,17.19
2022-12-01T10:22:49.179Z,16.64
2022-12-01T10:25:21.898Z,16.32
2022-12-01T10:28:06.861Z,16.02
2022-12-01T10:30:39.347Z,16.65
2022-12-01T10:33:34.031Z,17.04
2022-12-01T10:36:00.736Z,17.33
2022-12-01T10:38:31.061Z,17.40
2022-12-01T10:41:01.494Z,17.77
2022-12-01T10:43:57.874Z,17.86
2022-12-01T10:46:32.888Z,18.07
2022-12-01T10:49:06.876Z,18.06
2022-12-01T10:51:56.728Z,17.60
2022-12-01T10:54:40.197Z,17.63
2022-12-01T10:57:14.573Z,17.79
2022-12-01T10:59:53.216Z,17.59
2022-12-01T11:02:22.780Z,17.35
2022-12-01T11:04:59.548Z,17.19
2022-12-01T11:07:43.097Z,17.12
2022-12-01T11:10:17.638Z,16.97
2022-12-01T11:12:52.373Z,17.15
2022-12-01T11:15:28.113Z,17.32
2022-12-01T11:18:03.500Z,17.81
2022-12-01T11:20:38.533Z,17.89
2022-12-01T11:23:29.956Z,18.06
2022-12-01T11:25:58.465Z,18.14
2022-12-01T11:28:25.396Z,17.81
2022-12-01T11:30:58.418Z,18.03
2022-12-01T11:33:25.942Z,17.79
2022-12-01T11:35:52.754Z,17.63
2022-12-01T11:38:30.527Z,18.51
2022-12-01T11:40:58.567Z,18.25
2022-12-01T11:43:29.581Z,18.79
2022-12-01T11:45:58.754Z,19.14
2022-12-01T11:48:30.793Z,19.72
2022-12-01T11:51:37.162Z,20.00
2022-12-01T11:54:23.269Z,20.20
2022-12-01T11:57:17.474Z,20.06
2022-12-01T11:59:38.041Z,20.04
2022-12-01T12:02:23.187Z,20.00
2022-12-01T12:05:04.490Z,19.66
2022-12-01T12:07:55.128Z,20.28
2022-12-01T12:10:41.221Z,20.73
2022-12-01T12:13:46.863Z,20.11
2022-12-01T12:16:57.917Z,19.88
2022-12-01T12:20:12.403Z,19.78
2022-12-01T12:22:57.882Z,19.98
2022-12-01T12:25:46.160Z,19.45
2022-12-01T12:28:12.700Z,18.90
2022-12-01T12:31:01.781Z,18.69
2022-12-01T12:33:59.338Z,18.47
2022-12-01T12:36:52.003Z,18.13
2022-12-01T12:39:32.172Z,18.27
2022-12-01T12:41:58.857Z,18.29
2022-12-01T12:44:37.261Z,18.38
2022-12-01T12:47:25.519Z,17.94
2022-12-01T12:50:12.041Z,17.21
2022-12-01T12:52:45.594Z,16.88
2022-12-01T12:55:37.126Z,16.84
2022-12-01T12:58:13.196Z,16.55
2022-12-01T13:00:48.476Z,16.52
2022-12-01T13:03:23.208Z,16.53
2022-12-01T13:06:01.590Z,16.44
2022-12-01T13:08:38.591Z,16.13
2022-12-01T13:11:20.846Z,15.99
2022-12-01T13:14:17.937Z,15.66
2022-12-01T13:16:48.337Z,15.45
2022-12-01T13:19:35.527Z,15.53
2022-12-01T13:22:03.150Z,15.51
2022-12-01T13:24:31.282Z,15.62
2022-12-01T13:27:03.031Z,15.22
2022-12-01T13:29:37.444Z,14.96
2022-12-01T13:32:28.525Z,14.60
2022-12-01T13:34:55.578Z,14.85
2022-12-01T13:37:34.287Z,14.17
2022-12-01T13:40:09.265Z,13.94
2022-12-01T13:42:37.306Z,14.11
2022-12-01T13:45:19.186Z,14.57
2022-12-01T13:47:54.903Z,14.58
2022-12-01T13:50:43.833Z,14.36
2022-12-01T13:53:19.298Z,14.33
2022-12-01T13:56:05.702Z,13.88
2022-12-01T13:58:32.337Z,13.73
2022-12-01T14:01:20.883Z,13.76
2022-12-01T14:04:18.103Z,13.56
2022-12-01T14:06:49.619Z,13.54
2022-12-01T14:09:35.369Z,13.35
2022-12-01T14:12:06.599Z,13.37
2022-12-01T14:14:38.950Z,13.37
2022-12-01T14:17:06.051Z,13.30
2022-12-01T14:19:32.561Z,13.28
2022-12-01T14:22:01.340Z,13.09
2022-12-01T14:24:40.545Z,12.92
2022-12-01T14:27:11.818Z,12.92
2022-12-01T14:29:42.670Z,12.91
2022-12-01T14:32:09.206Z,12.77
2022-12-01T14:34:37.406Z,12.79
2022-12-01T14:37:11.199Z,12.62
2022-12-01T14:39:43.428Z,12.62
2022-12-01T14:43:00.182Z,12.57
2022-12-01T14:45:45.662Z,12.31
2022-12-01T14:48:21.514Z,12.16
2022-12-01T14:50:51.947Z,12.20
2022-12-01T14:53:24.278Z,12.22
2022-12-01T14:55:58.843Z,12.14
2022-12-01T14:58:31.961Z,12.20
2022-12-01T15:01:11.016Z,12.07
2022-12-01T15:03:45.505Z,11.96
2022-12-01T15:06:20.889Z,12.02
2022-12-01T15:09:32.002Z,11.96
2022-12-01T15:11:54.700Z,11.93
2022-12-01T15:14:22.521Z,11.96
2022-12-01T15:16:49.367Z,11.97
2022-12-01T15:19:35.269Z,11.92
2022-12-01T15:22:16.965Z,11.79
2022-12-01T15:24:44.567Z,11.73
2022-12-01T15:27:32.477Z,11.72
2022-12-01T15:30:04.420Z,11.65
2022-12-01T15:32:37.833Z,11.55
2022-12-01T15:35:05.588Z,11.53
2022-12-01T15:37:42.564Z,11.51
2022-12-01T15:43:14.397Z,11.23
2022-12-01T15:45:56.469Z,10.91
2022-12-01T15:48:32.875Z,10.86
2022-12-01T15:51:01.814Z,10.75
2022-12-01T15:53:32.881Z,10.71
2022-12-01T15:56:01.784Z,10.69
2022-12-01T15:58:36.321Z,10.69
2022-12-01T16:01:12.997Z,10.61
2022-12-01T16:04:14.263Z,10.53
2022-12-01T16:06:41.492Z,10.51
2022-12-01T16:09:28.679Z,10.30
2022-12-01T16:12:22.652Z,10.06
2022-12-01T16:14:50.902Z,9.95
2022-12-01T16:17:17.629Z,9.94
2022-12-01T16:19:45.553Z,9.92
2022-12-01T16:22:14.378Z,9.88
2022-12-01T16:24:48.719Z,9.81
2022-12-01T16:27:28.558Z,9.78
2022-12-01T16:29:57.174Z,9.70
2022-12-01T16:32:29.735Z,9.67
2022-12-01T16:34:56.268Z,9.66
2022-12-01T16:37:23.264Z,9.58
2022-12-01T16:39:50.033Z,9.52
2022-12-01T16:42:18.735Z,9.44
2022-12-01T16:44:46.509Z,9.43
2022-12-01T16:47:19.225Z,9.41
2022-12-01T16:49:45.978Z,9.35
